Containerships 6 — DABH — position and weather

sailwx.info

Track history (hours):
 
Tides and Currents Weather Stations Pressure Air Temp Water Temp Dewpoint Dewpoint Depression Visibility Wind Speed Wind Dir Waves Ship Positions

Containerships 6

Last reported at 2017-Feb-23 17:26 UTC. Time now 2017-Feb-24 12:40 UTC.
Position N 57°50' E 010°39'.

Length 155 m; beam 21.8 m; draft 8.9 m.

Type: Ship (hazmat cat A). MMSI: 211315096.

Date/timePositionNaut miles runAvg speedWind from/ knotsBaromVisibWave heightAir tempDewpointWater temp
2017-Feb-23 17:26N 57°50' E 010°39'1517.0
2017-Feb-23 16:33N 57°42' E 011°01'1717.4
2017-Feb-23 15:33N 57°29' E 011°24'1716.6
2017-Feb-23 14:33N 57°14' E 011°35'11614.5
2017-Feb-23 06:33N 55°19' E 011°03'1313.0
2017-Feb-23 05:33N 55°06' E 011°03'1313.4
2017-Feb-23 04:33N 54°54' E 010°54'1312.6
2017-Feb-23 03:33N 54°41' E 010°55'1413.9
2017-Feb-23 02:33N 54°35' E 011°17'1413.7
2017-Feb-23 01:33N 54°29' E 011°38'1413.8
2017-Feb-23 00:33N 54°26' E 012°01'1312.6
2017-Feb-22 23:33N 54°35' E 012°16'4914.6
2017-Feb-22 20:14N 54°45' E 013°39'1115.5
2017-Feb-22 19:33N 54°43' E 013°57'1615.6
2017-Feb-22 18:32N 54°38' E 014°23'1615.9
2017-Feb-22 17:33N 54°39' E 014°50'1616.2
2017-Feb-22 16:33N 54°42' E 015°17'9615.9
2017-Feb-22 10:33N 55°03' E 017°59'1616.1
2017-Feb-22 09:33N 55°10' E 018°24'1816.4
2017-Feb-22 08:28N 55°17' E 018°53'298 9.3
2017-Feb-21 00:32N 59°37' E 023°21'1818.5
2017-Feb-20 23:33N 59°42' E 023°56'8 0.4
2017-Feb-20 00:28N 59°37' E 023°43'31017.2
2017-Feb-19 06:28N 56°02' E 016°42'1617.8
2017-Feb-19 05:34N 55°55' E 016°17'1817.6
2017-Feb-19 04:34N 55°46' E 015°49'1817.5
2017-Feb-19 03:34N 55°38' E 015°22'1817.8
2017-Feb-19 02:33N 55°29' E 014°55'1817.6
2017-Feb-19 01:33N 55°18' E 014°30'1817.8
2017-Feb-19 00:34N 55°04' E 014°12'1717.4
2017-Feb-18 23:33N 54°56' E 013°45'3517.6
2017-Feb-18 21:34N 54°45' E 012°47'2017.3
2017-Feb-18 20:23N 54°34' E 012°17'1315.7
2017-Feb-18 19:32N 54°25' E 012°01'1717.6
2017-Feb-18 18:33N 54°29' E 011°32'1818.4
2017-Feb-18 17:34N 54°35' E 011°02'1717.3
2017-Feb-18 16:34N 54°33' E 010°32'41 6.6
2017-Feb-18 10:19N 54°12' E 009°32'6 7.2
2017-Feb-18 09:31N 54°09' E 009°23'6 6.6
2017-Feb-18 08:33N 54°03' E 009°18'7 6.7
2017-Feb-18 07:33N 53°57' E 009°14'1 0.6
2017-Feb-18 06:33N 53°57' E 009°14'4 4.0
2017-Feb-18 05:33N 53°54' E 009°09'2 2.0
2017-Feb-18 04:33N 53°53' E 009°06'1212.0
2017-Feb-18 03:34N 53°51' E 008°46'1716.5
2017-Feb-18 02:33N 53°59' E 008°21'1717.3
2017-Feb-18 01:33N 53°58' E 007°52'8018.3
2017-Feb-17 21:12N 53°37' E 005°41'1218.1
2017-Feb-17 20:33N 53°34' E 005°22'1817.9
2017-Feb-17 19:34N 53°28' E 004°54'1716.4
2017-Feb-17 18:30N 53°16' E 004°34'1617.3
2017-Feb-17 17:34N 53°01' E 004°22'1716.9
2017-Feb-17 16:33N 52°46' E 004°10'1716.7
2017-Feb-17 15:33N 52°31' E 003°56'1616.4
2017-Feb-17 14:33N 52°15' E 003°53'1616.3
2017-Feb-17 13:33N 51°60' E 004°02'1312.6
2017-Feb-17 12:33N 51°54' E 004°20'3 3.0
2017-Feb-17 11:33N 51°53' E 004°25'0 0.0
2017-Feb-17 10:33N 51°53' E 004°25'0 0.0
2017-Feb-17 09:30N 51°53' E 004°25'0 0.0
2017-Feb-17 08:33N 51°53' E 004°25'0 0.0
2017-Feb-17 07:32N 51°53' E 004°25'0 0.0
2017-Feb-17 06:33N 51°53' E 004°25'0 0.0
2017-Feb-17 05:33N 51°53' E 004°25'0 0.0
2017-Feb-17 04:32N 51°53' E 004°25'0 0.0
2017-Feb-17 03:33N 51°53' E 004°25'0 0.0
2017-Feb-17 02:33N 51°53' E 004°25'0 0.0
2017-Feb-17 01:33N 51°53' E 004°25'0 0.0
2017-Feb-17 00:33N 51°53' E 004°25'0 0.0
2017-Feb-16 23:32N 51°53' E 004°25'0 0.0
2017-Feb-16 22:32N 51°53' E 004°25'0 0.0
2017-Feb-16 21:32N 51°53' E 004°25'0 0.0
2017-Feb-16 20:32N 51°53' E 004°25'0 0.0
2017-Feb-16 19:32N 51°53' E 004°25'0 0.0
2017-Feb-16 18:33N 51°53' E 004°25'0 0.0
2017-Feb-16 17:33N 51°53' E 004°25'4 4.2
2017-Feb-16 16:33N 51°54' E 004°18'1413.8
2017-Feb-16 15:33N 52°00' E 003°59'1312.7
2017-Feb-16 14:33N 52°04' E 003°39'1919.4
2017-Feb-16 13:33N 52°15' E 003°13'5919.8
2017-Feb-16 10:34N 52°48' E 001°52'2120.5
2017-Feb-16 09:33N 53°03' E 001°28'6919.8
2017-Feb-16 06:06N 53°59' E 000°21'1119.9
2017-Feb-16 05:33N 54°07' E 000°09'2019.7
2017-Feb-16 04:34N 54°22' W 000°13'32 1.3
2017-Feb-15 03:15N 54°52' W 000°28'1216.9
2017-Feb-15 02:33N 54°58' W 000°10'23816.5
2017-Feb-14 12:07N 56°43' E 006°10'1716.5
2017-Feb-14 11:05N 56°50' E 006°38'916.4
2017-Feb-14 10:33N 56°54' E 006°53'1616.4
2017-Feb-14 09:33N 57°00' E 007°21'1716.5
2017-Feb-14 08:33N 57°07' E 007°49'1817.3
2017-Feb-14 07:31N 57°14' E 008°18'2017.5
2017-Feb-14 06:24N 57°24' E 008°50'1817.8
2017-Feb-14 05:24N 57°32' E 009°19'1518.1
2017-Feb-14 04:33N 57°39' E 009°45'1918.6
2017-Feb-14 03:33N 57°47' E 010°16'1817.8
2017-Feb-14 02:34N 57°47' E 010°50'1817.8
2017-Feb-14 01:34N 57°35' E 011°14'1817.5
2017-Feb-14 00:33N 57°20' E 011°31'1818.2
2017-Feb-13 23:33N 57°03' E 011°43'1717.2
2017-Feb-13 22:33N 56°46' E 011°53'1717.5
2017-Feb-13 21:33N 56°31' E 011°39'1817.2
2017-Feb-13 20:32N 56°16' E 011°23'2117.3
2017-Feb-13 19:18N 55°58' E 011°01'1917.2
2017-Feb-13 18:13N 55°41' E 010°48'  
Track history (hours):
 
Tides and Currents Weather Stations Pressure Air Temp Water Temp Dewpoint Dewpoint Depression Visibility Wind Speed Wind Dir Waves Ship Positions

Containerships 6

Last reported at 2017-Feb-23 17:26 UTC. Time now 2017-Feb-24 12:40 UTC.
Position N 57°50' E 010°39'.

Length 155 m; beam 21.8 m; draft 8.9 m.

Type: Ship (hazmat cat A). MMSI: 211315096.

Date/timePositionNaut miles runAvg speedWind from/ knotsBaromVisibWave heightAir tempDewpointWater temp
2017-Feb-23 17:26N 57°50' E 010°39'1517.0
2017-Feb-23 16:33N 57°42' E 011°01'1717.4
2017-Feb-23 15:33N 57°29' E 011°24'1716.6
2017-Feb-23 14:33N 57°14' E 011°35'11614.5
2017-Feb-23 06:33N 55°19' E 011°03'1313.0
2017-Feb-23 05:33N 55°06' E 011°03'1313.4
2017-Feb-23 04:33N 54°54' E 010°54'1312.6
2017-Feb-23 03:33N 54°41' E 010°55'1413.9
2017-Feb-23 02:33N 54°35' E 011°17'1413.7
2017-Feb-23 01:33N 54°29' E 011°38'1413.8
2017-Feb-23 00:33N 54°26' E 012°01'1312.6
2017-Feb-22 23:33N 54°35' E 012°16'4914.6
2017-Feb-22 20:14N 54°45' E 013°39'1115.5
2017-Feb-22 19:33N 54°43' E 013°57'1615.6
2017-Feb-22 18:32N 54°38' E 014°23'1615.9
2017-Feb-22 17:33N 54°39' E 014°50'1616.2
2017-Feb-22 16:33N 54°42' E 015°17'9615.9
2017-Feb-22 10:33N 55°03' E 017°59'1616.1
2017-Feb-22 09:33N 55°10' E 018°24'1816.4
2017-Feb-22 08:28N 55°17' E 018°53'298 9.3
2017-Feb-21 00:32N 59°37' E 023°21'1818.5
2017-Feb-20 23:33N 59°42' E 023°56'8 0.4
2017-Feb-20 00:28N 59°37' E 023°43'31017.2
2017-Feb-19 06:28N 56°02' E 016°42'1617.8
2017-Feb-19 05:34N 55°55' E 016°17'1817.6
2017-Feb-19 04:34N 55°46' E 015°49'1817.5
2017-Feb-19 03:34N 55°38' E 015°22'1817.8
2017-Feb-19 02:33N 55°29' E 014°55'1817.6
2017-Feb-19 01:33N 55°18' E 014°30'1817.8
2017-Feb-19 00:34N 55°04' E 014°12'1717.4
2017-Feb-18 23:33N 54°56' E 013°45'3517.6
2017-Feb-18 21:34N 54°45' E 012°47'2017.3
2017-Feb-18 20:23N 54°34' E 012°17'1315.7
2017-Feb-18 19:32N 54°25' E 012°01'1717.6
2017-Feb-18 18:33N 54°29' E 011°32'1818.4
2017-Feb-18 17:34N 54°35' E 011°02'1717.3
2017-Feb-18 16:34N 54°33' E 010°32'41 6.6
2017-Feb-18 10:19N 54°12' E 009°32'6 7.2
2017-Feb-18 09:31N 54°09' E 009°23'6 6.6
2017-Feb-18 08:33N 54°03' E 009°18'7 6.7
2017-Feb-18 07:33N 53°57' E 009°14'1 0.6
2017-Feb-18 06:33N 53°57' E 009°14'4 4.0
2017-Feb-18 05:33N 53°54' E 009°09'2 2.0
2017-Feb-18 04:33N 53°53' E 009°06'1212.0
2017-Feb-18 03:34N 53°51' E 008°46'1716.5
2017-Feb-18 02:33N 53°59' E 008°21'1717.3
2017-Feb-18 01:33N 53°58' E 007°52'8018.3
2017-Feb-17 21:12N 53°37' E 005°41'1218.1
2017-Feb-17 20:33N 53°34' E 005°22'1817.9
2017-Feb-17 19:34N 53°28' E 004°54'1716.4
2017-Feb-17 18:30N 53°16' E 004°34'1617.3
2017-Feb-17 17:34N 53°01' E 004°22'1716.9
2017-Feb-17 16:33N 52°46' E 004°10'1716.7
2017-Feb-17 15:33N 52°31' E 003°56'1616.4
2017-Feb-17 14:33N 52°15' E 003°53'1616.3
2017-Feb-17 13:33N 51°60' E 004°02'1312.6
2017-Feb-17 12:33N 51°54' E 004°20'3 3.0
2017-Feb-17 11:33N 51°53' E 004°25'0 0.0
2017-Feb-17 10:33N 51°53' E 004°25'0 0.0
2017-Feb-17 09:30N 51°53' E 004°25'0 0.0
2017-Feb-17 08:33N 51°53' E 004°25'0 0.0
2017-Feb-17 07:32N 51°53' E 004°25'0 0.0
2017-Feb-17 06:33N 51°53' E 004°25'0 0.0
2017-Feb-17 05:33N 51°53' E 004°25'0 0.0
2017-Feb-17 04:32N 51°53' E 004°25'0 0.0
2017-Feb-17 03:33N 51°53' E 004°25'0 0.0
2017-Feb-17 02:33N 51°53' E 004°25'0 0.0
2017-Feb-17 01:33N 51°53' E 004°25'0 0.0
2017-Feb-17 00:33N 51°53' E 004°25'0 0.0
2017-Feb-16 23:32N 51°53' E 004°25'0 0.0
2017-Feb-16 22:32N 51°53' E 004°25'0 0.0
2017-Feb-16 21:32N 51°53' E 004°25'0 0.0
2017-Feb-16 20:32N 51°53' E 004°25'0 0.0
2017-Feb-16 19:32N 51°53' E 004°25'0 0.0
2017-Feb-16 18:33N 51°53' E 004°25'0 0.0
2017-Feb-16 17:33N 51°53' E 004°25'4 4.2
2017-Feb-16 16:33N 51°54' E 004°18'1413.8
2017-Feb-16 15:33N 52°00' E 003°59'1312.7
2017-Feb-16 14:33N 52°04' E 003°39'1919.4
2017-Feb-16 13:33N 52°15' E 003°13'5919.8
2017-Feb-16 10:34N 52°48' E 001°52'2120.5
2017-Feb-16 09:33N 53°03' E 001°28'6919.8
2017-Feb-16 06:06N 53°59' E 000°21'1119.9
2017-Feb-16 05:33N 54°07' E 000°09'2019.7
2017-Feb-16 04:34N 54°22' W 000°13'32 1.3
2017-Feb-15 03:15N 54°52' W 000°28'1216.9
2017-Feb-15 02:33N 54°58' W 000°10'23816.5
2017-Feb-14 12:07N 56°43' E 006°10'1716.5
2017-Feb-14 11:05N 56°50' E 006°38'916.4
2017-Feb-14 10:33N 56°54' E 006°53'1616.4
2017-Feb-14 09:33N 57°00' E 007°21'1716.5
2017-Feb-14 08:33N 57°07' E 007°49'1817.3
2017-Feb-14 07:31N 57°14' E 008°18'2017.5
2017-Feb-14 06:24N 57°24' E 008°50'1817.8
2017-Feb-14 05:24N 57°32' E 009°19'1518.1
2017-Feb-14 04:33N 57°39' E 009°45'1918.6
2017-Feb-14 03:33N 57°47' E 010°16'1817.8
2017-Feb-14 02:34N 57°47' E 010°50'1817.8
2017-Feb-14 01:34N 57°35' E 011°14'1817.5
2017-Feb-14 00:33N 57°20' E 011°31'1818.2
2017-Feb-13 23:33N 57°03' E 011°43'1717.2
2017-Feb-13 22:33N 56°46' E 011°53'1717.5
2017-Feb-13 21:33N 56°31' E 011°39'1817.2
2017-Feb-13 20:32N 56°16' E 011°23'2117.3
2017-Feb-13 19:18N 55°58' E 011°01'1917.2
2017-Feb-13 18:13N 55°41' E 010°48'  

Dump ship's entire track history